sensor_id;sensor_type;location;lat;lon;timestamp;P1;durP1;ratioP1;P2;durP2;ratioP2
8642;SDS011;4359;49.358;11.256;2024-02-26T00:00:34;9.32;;;5.20;;
8642;SDS011;4359;49.358;11.256;2024-02-26T00:03:00;8.70;;;4.80;;
8642;SDS011;4359;49.358;11.256;2024-02-26T00:05:26;14.40;;;6.38;;
8642;SDS011;4359;49.358;11.256;2024-02-26T00:10:18;13.63;;;5.63;;
8642;SDS011;4359;49.358;11.256;2024-02-26T00:15:09;12.30;;;6.20;;
8642;SDS011;4359;49.358;11.256;2024-02-26T00:20:04;13.20;;;8.63;;
8642;SDS011;4359;49.358;11.256;2024-02-26T00:22:33;16.63;;;8.83;;
8642;SDS011;4359;49.358;11.256;2024-02-26T00:27:25;17.87;;;7.73;;
8642;SDS011;4359;49.358;11.256;2024-02-26T00:32:16;18.75;;;9.13;;
8642;SDS011;4359;49.358;11.256;2024-02-26T00:34:41;20.98;;;9.40;;
8642;SDS011;4359;49.358;11.256;2024-02-26T00:37:07;22.15;;;10.23;;
8642;SDS011;4359;49.358;11.256;2024-02-26T00:41:58;21.55;;;10.25;;
8642;SDS011;4359;49.358;11.256;2024-02-26T00:46:49;19.63;;;9.75;;
8642;SDS011;4359;49.358;11.256;2024-02-26T00:51:40;20.95;;;10.45;;
8642;SDS011;4359;49.358;11.256;2024-02-26T00:56:31;25.27;;;11.18;;
8642;SDS011;4359;49.358;11.256;2024-02-26T01:01:23;26.15;;;12.15;;
8642;SDS011;4359;49.358;11.256;2024-02-26T01:06:14;24.38;;;10.18;;
8642;SDS011;4359;49.358;11.256;2024-02-26T01:08:39;20.52;;;9.20;;
8642;SDS011;4359;49.358;11.256;2024-02-26T01:11:05;19.90;;;9.65;;
8642;SDS011;4359;49.358;11.256;2024-02-26T01:15:56;16.25;;;7.95;;
8642;SDS011;4359;49.358;11.256;2024-02-26T01:20:48;19.17;;;8.80;;
8642;SDS011;4359;49.358;11.256;2024-02-26T01:25:39;27.67;;;12.05;;
8642;SDS011;4359;49.358;11.256;2024-02-26T01:30:30;24.30;;;11.40;;
8642;SDS011;4359;49.358;11.256;2024-02-26T01:35:22;25.07;;;10.87;;
8642;SDS011;4359;49.358;11.256;2024-02-26T01:40:13;20.90;;;9.07;;
8642;SDS011;4359;49.358;11.256;2024-02-26T01:42:43;18.00;;;8.50;;
8642;SDS011;4359;49.358;11.256;2024-02-26T01:45:15;18.47;;;8.47;;
8642;SDS011;4359;49.358;11.256;2024-02-26T01:47:47;17.97;;;8.97;;
8642;SDS011;4359;49.358;11.256;2024-02-26T01:50:14;18.47;;;8.83;;
8642;SDS011;4359;49.358;11.256;2024-02-26T01:52:41;18.97;;;9.17;;
8642;SDS011;4359;49.358;11.256;2024-02-26T01:57:33;26.83;;;11.53;;
8642;SDS011;4359;49.358;11.256;2024-02-26T02:02:24;27.80;;;12.40;;
8642;SDS011;4359;49.358;11.256;2024-02-26T02:04:50;30.60;;;13.77;;
8642;SDS011;4359;49.358;11.256;2024-02-26T02:07:16;34.47;;;14.47;;
8642;SDS011;4359;49.358;11.256;2024-02-26T02:09:43;32.67;;;15.43;;
8642;SDS011;4359;49.358;11.256;2024-02-26T02:14:34;31.20;;;14.13;;
8642;SDS011;4359;49.358;11.256;2024-02-26T02:17:00;32.80;;;15.13;;
8642;SDS011;4359;49.358;11.256;2024-02-26T02:19:25;33.03;;;14.75;;
8642;SDS011;4359;49.358;11.256;2024-02-26T02:24:17;28.03;;;12.93;;
8642;SDS011;4359;49.358;11.256;2024-02-26T02:29:08;30.73;;;14.70;;
8642;SDS011;4359;49.358;11.256;2024-02-26T02:31:34;24.98;;;12.30;;
8642;SDS011;4359;49.358;11.256;2024-02-26T02:36:25;27.75;;;12.73;;
8642;SDS011;4359;49.358;11.256;2024-02-26T02:38:51;24.17;;;12.15;;
8642;SDS011;4359;49.358;11.256;2024-02-26T02:41:17;26.05;;;12.18;;
8642;SDS011;4359;49.358;11.256;2024-02-26T02:43:43;26.20;;;13.52;;
8642;SDS011;4359;49.358;11.256;2024-02-26T02:48:36;23.55;;;13.07;;
8642;SDS011;4359;49.358;11.256;2024-02-26T02:53:28;26.53;;;11.67;;
8642;SDS011;4359;49.358;11.256;2024-02-26T02:55:54;22.73;;;11.32;;
8642;SDS011;4359;49.358;11.256;2024-02-26T03:00:45;21.92;;;9.65;;
8642;SDS011;4359;49.358;11.256;2024-02-26T03:05:36;20.55;;;10.50;;
8642;SDS011;4359;49.358;11.256;2024-02-26T03:08:01;22.20;;;10.60;;
8642;SDS011;4359;49.358;11.256;2024-02-26T03:10:27;19.45;;;10.13;;
8642;SDS011;4359;49.358;11.256;2024-02-26T03:15:18;25.98;;;11.95;;
8642;SDS011;4359;49.358;11.256;2024-02-26T03:17:44;23.70;;;12.05;;
8642;SDS011;4359;49.358;11.256;2024-02-26T03:20:10;24.88;;;12.23;;
8642;SDS011;4359;49.358;11.256;2024-02-26T03:25:03;22.80;;;11.20;;
8642;SDS011;4359;49.358;11.256;2024-02-26T03:27:29;22.30;;;10.85;;
8642;SDS011;4359;49.358;11.256;2024-02-26T03:32:20;18.52;;;10.02;;
8642;SDS011;4359;49.358;11.256;2024-02-26T03:37:11;16.15;;;8.95;;
8642;SDS011;4359;49.358;11.256;2024-02-26T03:39:37;17.85;;;9.50;;
8642;SDS011;4359;49.358;11.256;2024-02-26T03:42:03;16.00;;;8.90;;
8642;SDS011;4359;49.358;11.256;2024-02-26T03:46:54;16.63;;;8.83;;
8642;SDS011;4359;49.358;11.256;2024-02-26T03:49:20;18.48;;;10.00;;
8642;SDS011;4359;49.358;11.256;2024-02-26T03:51:46;16.77;;;9.50;;
8642;SDS011;4359;49.358;11.256;2024-02-26T03:54:12;19.90;;;9.20;;
8642;SDS011;4359;49.358;11.256;2024-02-26T03:56:39;18.33;;;9.80;;
8642;SDS011;4359;49.358;11.256;2024-02-26T04:01:30;18.73;;;9.35;;
8642;SDS011;4359;49.358;11.256;2024-02-26T04:03:55;19.58;;;8.88;;
8642;SDS011;4359;49.358;11.256;2024-02-26T04:06:21;15.88;;;8.55;;
8642;SDS011;4359;49.358;11.256;2024-02-26T04:08:47;16.40;;;8.27;;
8642;SDS011;4359;49.358;11.256;2024-02-26T04:11:13;16.63;;;8.10;;
8642;SDS011;4359;49.358;11.256;2024-02-26T04:13:42;14.40;;;7.57;;
8642;SDS011;4359;49.358;11.256;2024-02-26T04:16:14;14.20;;;7.57;;
8642;SDS011;4359;49.358;11.256;2024-02-26T04:18:41;14.88;;;8.20;;
8642;SDS011;4359;49.358;11.256;2024-02-26T04:23:32;17.53;;;7.93;;
8642;SDS011;4359;49.358;11.256;2024-02-26T04:25:58;13.40;;;7.47;;
8642;SDS011;4359;49.358;11.256;2024-02-26T04:30:54;12.35;;;7.00;;
8642;SDS011;4359;49.358;11.256;2024-02-26T04:33:20;12.88;;;7.32;;
8642;SDS011;4359;49.358;11.256;2024-02-26T04:38:12;12.57;;;6.88;;
8642;SDS011;4359;49.358;11.256;2024-02-26T04:40:37;15.65;;;7.72;;
8642;SDS011;4359;49.358;11.256;2024-02-26T04:45:29;13.40;;;7.13;;
8642;SDS011;4359;49.358;11.256;2024-02-26T04:50:20;13.70;;;7.25;;
8642;SDS011;4359;49.358;11.256;2024-02-26T04:52:45;13.23;;;6.55;;
8642;SDS011;4359;49.358;11.256;2024-02-26T04:57:37;11.07;;;6.13;;
8642;SDS011;4359;49.358;11.256;2024-02-26T05:04:57;13.98;;;7.20;;
8642;SDS011;4359;49.358;11.256;2024-02-26T05:09:48;16.70;;;7.95;;
8642;SDS011;4359;49.358;11.256;2024-02-26T05:12:14;16.55;;;6.82;;
8642;SDS011;4359;49.358;11.256;2024-02-26T05:17:06;12.93;;;5.85;;
8642;SDS011;4359;49.358;11.256;2024-02-26T05:19:31;12.43;;;6.30;;
8642;SDS011;4359;49.358;11.256;2024-02-26T05:24:22;12.07;;;5.78;;
8642;SDS011;4359;49.358;11.256;2024-02-26T05:29:13;9.73;;;5.07;;
8642;SDS011;4359;49.358;11.256;2024-02-26T05:34:07;10.93;;;4.88;;
8642;SDS011;4359;49.358;11.256;2024-02-26T05:38:59;13.20;;;4.22;;
8642;SDS011;4359;49.358;11.256;2024-02-26T05:41:25;7.53;;;4.10;;
8642;SDS011;4359;49.358;11.256;2024-02-26T05:43:52;9.38;;;3.92;;
8642;SDS011;4359;49.358;11.256;2024-02-26T05:46:18;7.32;;;3.88;;
8642;SDS011;4359;49.358;11.256;2024-02-26T05:48:48;8.07;;;3.90;;
8642;SDS011;4359;49.358;11.256;2024-02-26T05:51:17;12.30;;;4.65;;
8642;SDS011;4359;49.358;11.256;2024-02-26T05:56:09;9.77;;;4.38;;
8642;SDS011;4359;49.358;11.256;2024-02-26T06:01:00;8.23;;;4.20;;
8642;SDS011;4359;49.358;11.256;2024-02-26T06:05:51;7.68;;;4.30;;
8642;SDS011;4359;49.358;11.256;2024-02-26T06:08:17;10.93;;;4.20;;
8642;SDS011;4359;49.358;11.256;2024-02-26T06:10:43;10.20;;;4.93;;
8642;SDS011;4359;49.358;11.256;2024-02-26T06:15:34;9.18;;;4.80;;
8642;SDS011;4359;49.358;11.256;2024-02-26T06:18:00;8.77;;;4.35;;
8642;SDS011;4359;49.358;11.256;2024-02-26T06:22:51;7.70;;;3.85;;
8642;SDS011;4359;49.358;11.256;2024-02-26T06:27:42;12.88;;;4.85;;
8642;SDS011;4359;49.358;11.256;2024-02-26T06:30:08;9.77;;;4.70;;
8642;SDS011;4359;49.358;11.256;2024-02-26T06:32:36;10.10;;;4.78;;
8642;SDS011;4359;49.358;11.256;2024-02-26T06:35:02;8.55;;;5.22;;
8642;SDS011;4359;49.358;11.256;2024-02-26T06:37:32;9.05;;;4.65;;
8642;SDS011;4359;49.358;11.256;2024-02-26T06:39:58;7.32;;;4.20;;
8642;SDS011;4359;49.358;11.256;2024-02-26T06:42:25;6.45;;;3.67;;
8642;SDS011;4359;49.358;11.256;2024-02-26T06:47:16;14.07;;;5.65;;
8642;SDS011;4359;49.358;11.256;2024-02-26T06:49:41;8.52;;;3.95;;
8642;SDS011;4359;49.358;11.256;2024-02-26T06:52:08;9.73;;;3.83;;
8642;SDS011;4359;49.358;11.256;2024-02-26T06:56:59;10.23;;;4.10;;
8642;SDS011;4359;49.358;11.256;2024-02-26T07:01:50;9.75;;;4.57;;
8642;SDS011;4359;49.358;11.256;2024-02-26T07:04:16;7.57;;;4.32;;
8642;SDS011;4359;49.358;11.256;2024-02-26T07:06:41;19.17;;;7.47;;
8642;SDS011;4359;49.358;11.256;2024-02-26T07:09:08;15.05;;;6.10;;
8642;SDS011;4359;49.358;11.256;2024-02-26T07:14:00;7.60;;;3.90;;
8642;SDS011;4359;49.358;11.256;2024-02-26T07:16:26;15.07;;;4.50;;
8642;SDS011;4359;49.358;11.256;2024-02-26T07:18:52;12.70;;;3.80;;
8642;SDS011;4359;49.358;11.256;2024-02-26T07:23:43;7.13;;;3.88;;
8642;SDS011;4359;49.358;11.256;2024-02-26T07:26:09;7.25;;;3.60;;
8642;SDS011;4359;49.358;11.256;2024-02-26T07:28:36;11.35;;;3.80;;
8642;SDS011;4359;49.358;11.256;2024-02-26T07:31:02;5.82;;;3.40;;
8642;SDS011;4359;49.358;11.256;2024-02-26T07:35:54;7.10;;;3.95;;
8642;SDS011;4359;49.358;11.256;2024-02-26T07:38:20;9.25;;;3.85;;
8642;SDS011;4359;49.358;11.256;2024-02-26T07:40:45;7.47;;;3.25;;
8642;SDS011;4359;49.358;11.256;2024-02-26T07:43:11;7.65;;;3.58;;
8642;SDS011;4359;49.358;11.256;2024-02-26T07:48:02;11.82;;;4.20;;
8642;SDS011;4359;49.358;11.256;2024-02-26T07:50:28;10.52;;;3.83;;
8642;SDS011;4359;49.358;11.256;2024-02-26T07:52:54;8.02;;;4.00;;
8642;SDS011;4359;49.358;11.256;2024-02-26T07:57:45;9.02;;;3.58;;
8642;SDS011;4359;49.358;11.256;2024-02-26T08:00:11;8.68;;;3.72;;
8642;SDS011;4359;49.358;11.256;2024-02-26T08:02:41;9.48;;;3.60;;
8642;SDS011;4359;49.358;11.256;2024-02-26T08:07:32;13.77;;;3.70;;
8642;SDS011;4359;49.358;11.256;2024-02-26T08:12:24;8.13;;;3.17;;
8642;SDS011;4359;49.358;11.256;2024-02-26T08:14:49;10.48;;;3.35;;
8642;SDS011;4359;49.358;11.256;2024-02-26T08:17:15;5.75;;;3.28;;
8642;SDS011;4359;49.358;11.256;2024-02-26T08:19:41;6.55;;;3.45;;
8642;SDS011;4359;49.358;11.256;2024-02-26T08:22:06;7.93;;;4.25;;
8642;SDS011;4359;49.358;11.256;2024-02-26T08:24:32;11.27;;;3.95;;
8642;SDS011;4359;49.358;11.256;2024-02-26T08:26:57;5.55;;;3.38;;
8642;SDS011;4359;49.358;11.256;2024-02-26T08:29:23;6.13;;;2.80;;
8642;SDS011;4359;49.358;11.256;2024-02-26T08:31:49;8.02;;;3.60;;
8642;SDS011;4359;49.358;11.256;2024-02-26T08:34:15;7.22;;;3.13;;
8642;SDS011;4359;49.358;11.256;2024-02-26T08:39:08;9.52;;;3.30;;
8642;SDS011;4359;49.358;11.256;2024-02-26T08:43:59;7.57;;;3.80;;
8642;SDS011;4359;49.358;11.256;2024-02-26T08:46:25;8.15;;;3.40;;
8642;SDS011;4359;49.358;11.256;2024-02-26T08:51:16;7.05;;;3.88;;
8642;SDS011;4359;49.358;11.256;2024-02-26T08:53:42;7.53;;;4.07;;
8642;SDS011;4359;49.358;11.256;2024-02-26T08:56:07;8.27;;;3.58;;
8642;SDS011;4359;49.358;11.256;2024-02-26T08:58:33;8.32;;;2.78;;
8642;SDS011;4359;49.358;11.256;2024-02-26T09:00:58;5.47;;;2.95;;
8642;SDS011;4359;49.358;11.256;2024-02-26T09:03:24;7.03;;;3.30;;
8642;SDS011;4359;49.358;11.256;2024-02-26T09:05:51;7.55;;;3.22;;
8642;SDS011;4359;49.358;11.256;2024-02-26T09:08:16;6.38;;;4.10;;
8642;SDS011;4359;49.358;11.256;2024-02-26T09:10:42;6.40;;;3.53;;
8642;SDS011;4359;49.358;11.256;2024-02-26T09:13:08;12.35;;;3.45;;
8642;SDS011;4359;49.358;11.256;2024-02-26T09:15:33;7.68;;;3.97;;
8642;SDS011;4359;49.358;11.256;2024-02-26T09:17:59;7.15;;;3.58;;
8642;SDS011;4359;49.358;11.256;2024-02-26T09:20:24;12.10;;;4.03;;
8642;SDS011;4359;49.358;11.256;2024-02-26T09:22:50;7.18;;;3.53;;
8642;SDS011;4359;49.358;11.256;2024-02-26T09:25:19;6.43;;;3.60;;
8642;SDS011;4359;49.358;11.256;2024-02-26T09:27:45;5.95;;;3.08;;
8642;SDS011;4359;49.358;11.256;2024-02-26T09:30:12;6.30;;;3.38;;
8642;SDS011;4359;49.358;11.256;2024-02-26T09:32:38;9.35;;;3.25;;
8642;SDS011;4359;49.358;11.256;2024-02-26T09:35:05;6.78;;;3.40;;
8642;SDS011;4359;49.358;11.256;2024-02-26T09:37:30;6.07;;;3.20;;
8642;SDS011;4359;49.358;11.256;2024-02-26T09:39:56;8.02;;;3.38;;
8642;SDS011;4359;49.358;11.256;2024-02-26T09:42:24;12.82;;;3.97;;
8642;SDS011;4359;49.358;11.256;2024-02-26T09:44:51;6.68;;;3.35;;
8642;SDS011;4359;49.358;11.256;2024-02-26T09:47:22;7.07;;;3.80;;
8642;SDS011;4359;49.358;11.256;2024-02-26T09:49:50;6.07;;;3.55;;
8642;SDS011;4359;49.358;11.256;2024-02-26T09:52:18;9.57;;;3.92;;
8642;SDS011;4359;49.358;11.256;2024-02-26T09:54:48;5.60;;;3.50;;
8642;SDS011;4359;49.358;11.256;2024-02-26T09:57:13;6.35;;;3.60;;
8642;SDS011;4359;49.358;11.256;2024-02-26T09:59:42;7.97;;;3.10;;
8642;SDS011;4359;49.358;11.256;2024-02-26T10:02:11;6.03;;;3.17;;
8642;SDS011;4359;49.358;11.256;2024-02-26T10:04:42;6.97;;;3.50;;
8642;SDS011;4359;49.358;11.256;2024-02-26T10:07:11;5.43;;;3.08;;
8642;SDS011;4359;49.358;11.256;2024-02-26T10:09:39;8.95;;;3.10;;
8642;SDS011;4359;49.358;11.256;2024-02-26T10:12:07;4.95;;;2.65;;
8642;SDS011;4359;49.358;11.256;2024-02-26T10:14:35;6.35;;;2.95;;
8642;SDS011;4359;49.358;11.256;2024-02-26T10:17:01;6.75;;;2.63;;
8642;SDS011;4359;49.358;11.256;2024-02-26T10:19:28;13.25;;;6.07;;
8642;SDS011;4359;49.358;11.256;2024-02-26T10:21:58;6.25;;;3.15;;
8642;SDS011;4359;49.358;11.256;2024-02-26T10:24:25;8.88;;;4.22;;
8642;SDS011;4359;49.358;11.256;2024-02-26T10:26:52;6.55;;;2.53;;
8642;SDS011;4359;49.358;11.256;2024-02-26T10:29:19;5.65;;;2.92;;
8642;SDS011;4359;49.358;11.256;2024-02-26T10:31:45;7.57;;;2.70;;
8642;SDS011;4359;49.358;11.256;2024-02-26T10:34:11;8.85;;;3.20;;
8642;SDS011;4359;49.358;11.256;2024-02-26T10:36:36;5.80;;;3.40;;
8642;SDS011;4359;49.358;11.256;2024-02-26T10:39:05;8.55;;;3.03;;
8642;SDS011;4359;49.358;11.256;2024-02-26T10:41:32;6.28;;;2.45;;
8642;SDS011;4359;49.358;11.256;2024-02-26T10:43:58;4.70;;;2.38;;
8642;SDS011;4359;49.358;11.256;2024-02-26T10:46:25;4.18;;;2.30;;
8642;SDS011;4359;49.358;11.256;2024-02-26T10:48:51;9.85;;;2.80;;
8642;SDS011;4359;49.358;11.256;2024-02-26T10:51:18;5.25;;;2.72;;
8642;SDS011;4359;49.358;11.256;2024-02-26T10:53:50;12.95;;;6.53;;
8642;SDS011;4359;49.358;11.256;2024-02-26T10:56:21;6.68;;;2.90;;
8642;SDS011;4359;49.358;11.256;2024-02-26T10:58:52;10.40;;;3.75;;
8642;SDS011;4359;49.358;11.256;2024-02-26T11:01:18;4.97;;;2.85;;
8642;SDS011;4359;49.358;11.256;2024-02-26T11:03:46;5.65;;;2.58;;
8642;SDS011;4359;49.358;11.256;2024-02-26T11:06:16;6.82;;;2.70;;
8642;SDS011;4359;49.358;11.256;2024-02-26T11:08:42;6.00;;;2.50;;
8642;SDS011;4359;49.358;11.256;2024-02-26T11:11:08;4.32;;;2.40;;
8642;SDS011;4359;49.358;11.256;2024-02-26T11:13:38;4.72;;;2.60;;
8642;SDS011;4359;49.358;11.256;2024-02-26T11:16:05;8.48;;;2.78;;
8642;SDS011;4359;49.358;11.256;2024-02-26T11:18:32;5.50;;;2.00;;
8642;SDS011;4359;49.358;11.256;2024-02-26T11:21:00;5.93;;;2.60;;
8642;SDS011;4359;49.358;11.256;2024-02-26T11:23:26;4.07;;;2.10;;
8642;SDS011;4359;49.358;11.256;2024-02-26T11:25:52;4.43;;;2.40;;
8642;SDS011;4359;49.358;11.256;2024-02-26T11:28:22;3.88;;;2.20;;
8642;SDS011;4359;49.358;11.256;2024-02-26T11:30:49;4.25;;;2.15;;
8642;SDS011;4359;49.358;11.256;2024-02-26T11:33:16;4.82;;;2.28;;
8642;SDS011;4359;49.358;11.256;2024-02-26T11:35:42;8.82;;;2.88;;
8642;SDS011;4359;49.358;11.256;2024-02-26T11:38:16;5.75;;;2.20;;
8642;SDS011;4359;49.358;11.256;2024-02-26T11:40:46;7.88;;;2.63;;
8642;SDS011;4359;49.358;11.256;2024-02-26T11:43:13;6.05;;;2.35;;
8642;SDS011;4359;49.358;11.256;2024-02-26T11:48:10;4.35;;;2.50;;
8642;SDS011;4359;49.358;11.256;2024-02-26T11:50:47;4.72;;;2.33;;
8642;SDS011;4359;49.358;11.256;2024-02-26T11:53:24;6.35;;;3.30;;
8642;SDS011;4359;49.358;11.256;2024-02-26T11:58:42;5.65;;;2.75;;
8642;SDS011;4359;49.358;11.256;2024-02-26T12:04:05;5.70;;;2.40;;
8642;SDS011;4359;49.358;11.256;2024-02-26T12:06:56;4.75;;;2.47;;
8642;SDS011;4359;49.358;11.256;2024-02-26T12:09:34;3.83;;;2.40;;
8642;SDS011;4359;49.358;11.256;2024-02-26T12:12:07;7.10;;;2.15;;
8642;SDS011;4359;49.358;11.256;2024-02-26T12:14:53;3.90;;;2.25;;
8642;SDS011;4359;49.358;11.256;2024-02-26T12:17:21;4.38;;;1.80;;
8642;SDS011;4359;49.358;11.256;2024-02-26T12:19:48;5.25;;;2.53;;
8642;SDS011;4359;49.358;11.256;2024-02-26T12:22:15;5.85;;;2.47;;
8642;SDS011;4359;49.358;11.256;2024-02-26T12:24:44;4.47;;;2.65;;
8642;SDS011;4359;49.358;11.256;2024-02-26T12:27:10;5.90;;;2.60;;
8642;SDS011;4359;49.358;11.256;2024-02-26T12:29:36;8.45;;;2.60;;
8642;SDS011;4359;49.358;11.256;2024-02-26T12:32:03;4.43;;;2.55;;
8642;SDS011;4359;49.358;11.256;2024-02-26T12:34:30;5.85;;;2.40;;
8642;SDS011;4359;49.358;11.256;2024-02-26T12:36:56;4.97;;;2.67;;
8642;SDS011;4359;49.358;11.256;2024-02-26T12:39:22;3.45;;;2.20;;
8642;SDS011;4359;49.358;11.256;2024-02-26T12:41:48;4.50;;;2.40;;
8642;SDS011;4359;49.358;11.256;2024-02-26T12:44:17;3.53;;;2.15;;
8642;SDS011;4359;49.358;11.256;2024-02-26T12:46:43;3.92;;;2.22;;
8642;SDS011;4359;49.358;11.256;2024-02-26T12:49:14;3.85;;;2.35;;
8642;SDS011;4359;49.358;11.256;2024-02-26T12:51:40;3.95;;;2.22;;
8642;SDS011;4359;49.358;11.256;2024-02-26T12:54:06;5.35;;;2.40;;
8642;SDS011;4359;49.358;11.256;2024-02-26T12:56:33;3.38;;;2.15;;
8642;SDS011;4359;49.358;11.256;2024-02-26T12:58:59;6.03;;;2.47;;
8642;SDS011;4359;49.358;11.256;2024-02-26T13:01:25;4.10;;;2.20;;
8642;SDS011;4359;49.358;11.256;2024-02-26T13:03:52;4.80;;;2.80;;
8642;SDS011;4359;49.358;11.256;2024-02-26T13:06:18;6.13;;;2.40;;
8642;SDS011;4359;49.358;11.256;2024-02-26T13:08:46;4.43;;;2.13;;
8642;SDS011;4359;49.358;11.256;2024-02-26T13:34:47;3.85;;;2.05;;
8642;SDS011;4359;49.358;11.256;2024-02-26T13:37:13;6.07;;;2.30;;
8642;SDS011;4359;49.358;11.256;2024-02-26T13:39:38;3.30;;;1.88;;
8642;SDS011;4359;49.358;11.256;2024-02-26T13:42:05;3.05;;;1.85;;
8642;SDS011;4359;49.358;11.256;2024-02-26T13:44:33;7.00;;;1.85;;
8642;SDS011;4359;49.358;11.256;2024-02-26T13:47:01;7.30;;;2.17;;
8642;SDS011;4359;49.358;11.256;2024-02-26T13:49:27;4.60;;;1.73;;
8642;SDS011;4359;49.358;11.256;2024-02-26T13:51:53;4.25;;;2.20;;
8642;SDS011;4359;49.358;11.256;2024-02-26T13:54:18;6.43;;;3.13;;
8642;SDS011;4359;49.358;11.256;2024-02-26T13:56:44;4.25;;;2.08;;
8642;SDS011;4359;49.358;11.256;2024-02-26T13:59:09;8.93;;;2.22;;
8642;SDS011;4359;49.358;11.256;2024-02-26T14:01:35;5.18;;;2.38;;
8642;SDS011;4359;49.358;11.256;2024-02-26T14:04:01;4.28;;;2.42;;
8642;SDS011;4359;49.358;11.256;2024-02-26T14:06:27;3.80;;;2.15;;
8642;SDS011;4359;49.358;11.256;2024-02-26T14:08:53;5.82;;;2.80;;
8642;SDS011;4359;49.358;11.256;2024-02-26T14:11:18;4.38;;;2.00;;
8642;SDS011;4359;49.358;11.256;2024-02-26T14:13:44;7.35;;;2.13;;
8642;SDS011;4359;49.358;11.256;2024-02-26T14:16:11;10.55;;;2.35;;
8642;SDS011;4359;49.358;11.256;2024-02-26T14:18:38;6.63;;;2.63;;
8642;SDS011;4359;49.358;11.256;2024-02-26T14:21:04;6.95;;;2.67;;
8642;SDS011;4359;49.358;11.256;2024-02-26T14:23:30;4.78;;;2.40;;
8642;SDS011;4359;49.358;11.256;2024-02-26T14:25:55;6.07;;;2.67;;
8642;SDS011;4359;49.358;11.256;2024-02-26T14:28:21;5.25;;;2.60;;
8642;SDS011;4359;49.358;11.256;2024-02-26T14:30:46;4.00;;;2.28;;
8642;SDS011;4359;49.358;11.256;2024-02-26T14:33:12;4.15;;;2.28;;
8642;SDS011;4359;49.358;11.256;2024-02-26T14:35:38;4.38;;;2.30;;
8642;SDS011;4359;49.358;11.256;2024-02-26T14:38:03;5.35;;;2.90;;
8642;SDS011;4359;49.358;11.256;2024-02-26T14:40:29;6.68;;;2.28;;
8642;SDS011;4359;49.358;11.256;2024-02-26T14:42:55;5.72;;;2.05;;
8642;SDS011;4359;49.358;11.256;2024-02-26T14:45:22;3.72;;;2.38;;
8642;SDS011;4359;49.358;11.256;2024-02-26T14:47:48;4.25;;;2.58;;
8642;SDS011;4359;49.358;11.256;2024-02-26T14:50:14;6.05;;;2.75;;
8642;SDS011;4359;49.358;11.256;2024-02-26T14:52:40;4.53;;;2.35;;
8642;SDS011;4359;49.358;11.256;2024-02-26T14:55:05;4.18;;;2.28;;
8642;SDS011;4359;49.358;11.256;2024-02-26T14:57:32;5.32;;;2.63;;
8642;SDS011;4359;49.358;11.256;2024-02-26T14:59:57;8.85;;;4.10;;
8642;SDS011;4359;49.358;11.256;2024-02-26T15:02:23;9.60;;;3.55;;
8642;SDS011;4359;49.358;11.256;2024-02-26T15:04:49;21.02;;;4.63;;
8642;SDS011;4359;49.358;11.256;2024-02-26T15:07:14;30.88;;;7.82;;
8642;SDS011;4359;49.358;11.256;2024-02-26T15:09:40;7.47;;;3.70;;
8642;SDS011;4359;49.358;11.256;2024-02-26T15:12:05;6.65;;;3.80;;
8642;SDS011;4359;49.358;11.256;2024-02-26T15:14:33;6.18;;;3.45;;
8642;SDS011;4359;49.358;11.256;2024-02-26T15:16:58;7.30;;;3.03;;
8642;SDS011;4359;49.358;11.256;2024-02-26T15:19:24;7.93;;;3.78;;
8642;SDS011;4359;49.358;11.256;2024-02-26T15:21:50;6.30;;;3.17;;
8642;SDS011;4359;49.358;11.256;2024-02-26T15:24:15;7.55;;;4.05;;
8642;SDS011;4359;49.358;11.256;2024-02-26T15:26:42;8.27;;;3.92;;
8642;SDS011;4359;49.358;11.256;2024-02-26T15:29:08;6.15;;;3.40;;
8642;SDS011;4359;49.358;11.256;2024-02-26T15:31:34;5.57;;;3.33;;
8642;SDS011;4359;49.358;11.256;2024-02-26T15:34:00;7.82;;;3.97;;
8642;SDS011;4359;49.358;11.256;2024-02-26T15:36:27;6.45;;;3.70;;
8642;SDS011;4359;49.358;11.256;2024-02-26T15:38:53;8.20;;;3.10;;
8642;SDS011;4359;49.358;11.256;2024-02-26T15:41:18;4.38;;;2.78;;
8642;SDS011;4359;49.358;11.256;2024-02-26T15:43:44;7.97;;;2.97;;
8642;SDS011;4359;49.358;11.256;2024-02-26T15:46:09;4.63;;;2.90;;
8642;SDS011;4359;49.358;11.256;2024-02-26T15:48:38;7.53;;;3.97;;
8642;SDS011;4359;49.358;11.256;2024-02-26T15:51:04;4.93;;;3.15;;
8642;SDS011;4359;49.358;11.256;2024-02-26T15:53:30;5.97;;;2.90;;
8642;SDS011;4359;49.358;11.256;2024-02-26T15:55:55;4.22;;;2.70;;
8642;SDS011;4359;49.358;11.256;2024-02-26T15:58:21;6.95;;;3.38;;
8642;SDS011;4359;49.358;11.256;2024-02-26T16:00:49;4.60;;;2.85;;
8642;SDS011;4359;49.358;11.256;2024-02-26T16:03:14;6.47;;;4.25;;
8642;SDS011;4359;49.358;11.256;2024-02-26T16:05:41;11.05;;;4.85;;
8642;SDS011;4359;49.358;11.256;2024-02-26T16:08:17;6.18;;;3.47;;
8642;SDS011;4359;49.358;11.256;2024-02-26T16:10:46;7.03;;;4.88;;
8642;SDS011;4359;49.358;11.256;2024-02-26T16:13:12;9.00;;;5.15;;
8642;SDS011;4359;49.358;11.256;2024-02-26T16:15:38;7.25;;;3.58;;
8642;SDS011;4359;49.358;11.256;2024-02-26T16:18:08;6.18;;;2.95;;
8642;SDS011;4359;49.358;11.256;2024-02-26T16:20:33;8.73;;;3.55;;
8642;SDS011;4359;49.358;11.256;2024-02-26T16:22:59;7.28;;;3.75;;
8642;SDS011;4359;49.358;11.256;2024-02-26T17:19:36;8.45;;;5.93;;
8642;SDS011;4359;49.358;11.256;2024-02-26T17:22:02;9.18;;;6.00;;
8642;SDS011;4359;49.358;11.256;2024-02-26T17:24:28;10.40;;;6.18;;
8642;SDS011;4359;49.358;11.256;2024-02-26T17:26:53;10.05;;;5.90;;
8642;SDS011;4359;49.358;11.256;2024-02-26T17:29:19;10.23;;;6.50;;
8642;SDS011;4359;49.358;11.256;2024-02-26T17:31:44;9.55;;;5.65;;
8642;SDS011;4359;49.358;11.256;2024-02-26T17:34:10;9.20;;;5.65;;
8642;SDS011;4359;49.358;11.256;2024-02-26T17:36:36;10.40;;;6.25;;
8642;SDS011;4359;49.358;11.256;2024-02-26T17:39:02;11.25;;;6.53;;
8642;SDS011;4359;49.358;11.256;2024-02-26T17:41:28;9.25;;;6.35;;
8642;SDS011;4359;49.358;11.256;2024-02-26T17:43:54;10.95;;;6.38;;
8642;SDS011;4359;49.358;11.256;2024-02-26T17:46:20;13.35;;;7.15;;
8642;SDS011;4359;49.358;11.256;2024-02-26T17:48:45;12.52;;;6.95;;
8642;SDS011;4359;49.358;11.256;2024-02-26T17:51:11;12.02;;;7.10;;
8642;SDS011;4359;49.358;11.256;2024-02-26T17:53:37;11.25;;;7.05;;
8642;SDS011;4359;49.358;11.256;2024-02-26T17:56:03;13.85;;;8.57;;
8642;SDS011;4359;49.358;11.256;2024-02-26T17:58:31;15.63;;;8.65;;
8642;SDS011;4359;49.358;11.256;2024-02-26T18:00:57;11.98;;;7.57;;
8642;SDS011;4359;49.358;11.256;2024-02-26T18:03:23;14.25;;;8.65;;
8642;SDS011;4359;49.358;11.256;2024-02-26T18:05:49;13.77;;;8.32;;
8642;SDS011;4359;49.358;11.256;2024-02-26T18:08:15;13.27;;;7.80;;
8642;SDS011;4359;49.358;11.256;2024-02-26T18:10:46;13.32;;;7.82;;
8642;SDS011;4359;49.358;11.256;2024-02-26T18:13:13;12.65;;;7.80;;
8642;SDS011;4359;49.358;11.256;2024-02-26T18:15:39;13.30;;;7.82;;
8642;SDS011;4359;49.358;11.256;2024-02-26T18:18:04;22.38;;;11.32;;
8642;SDS011;4359;49.358;11.256;2024-02-26T18:20:30;13.60;;;8.05;;
8642;SDS011;4359;49.358;11.256;2024-02-26T18:22:56;14.90;;;7.88;;
8642;SDS011;4359;49.358;11.256;2024-02-26T18:25:22;11.45;;;7.80;;
8642;SDS011;4359;49.358;11.256;2024-02-26T18:27:49;13.57;;;8.32;;
8642;SDS011;4359;49.358;11.256;2024-02-26T18:30:16;13.40;;;8.68;;
8642;SDS011;4359;49.358;11.256;2024-02-26T18:32:42;13.45;;;7.85;;
8642;SDS011;4359;49.358;11.256;2024-02-26T18:35:09;13.32;;;7.50;;
8642;SDS011;4359;49.358;11.256;2024-02-26T18:37:35;10.82;;;6.97;;
8642;SDS011;4359;49.358;11.256;2024-02-26T18:40:01;17.13;;;7.38;;
8642;SDS011;4359;49.358;11.256;2024-02-26T18:42:31;11.88;;;7.38;;
8642;SDS011;4359;49.358;11.256;2024-02-26T18:44:58;11.15;;;7.35;;
8642;SDS011;4359;49.358;11.256;2024-02-26T18:47:24;13.90;;;8.55;;
8642;SDS011;4359;49.358;11.256;2024-02-26T18:49:50;12.45;;;8.15;;
8642;SDS011;4359;49.358;11.256;2024-02-26T18:52:16;16.58;;;9.80;;
8642;SDS011;4359;49.358;11.256;2024-02-26T18:54:42;14.40;;;8.63;;
8642;SDS011;4359;49.358;11.256;2024-02-26T18:57:08;15.40;;;8.60;;